Check out our new PWSWeather beta!
PWSweather.com
Personal Weather Stations
Station Observations
PENICUIKWS
PenicuikGB

PenicuikGB

Lat: 55.830932, Lon: -3.224533000000065

Elevation: 166

Station Type: Fine Offset

http://weather.penicuik.org

High Low Average
Temperature 79.9°F26.6°C 51.4°F10.8°C 66.9°F19.4°C
Dew Point 60.9°F16.1°C 51.2°F10.7°C 56.2°F13.4°C
Winds 6.1 mph 9.8 kmh Calm Calm 2.0 mph SSW3.2 kmh SSW
Wind Gusts 10.7 mph17.2 kmh -- 4.0 mph6.4 kmh
Humidity 99% 47% 71%
Pressure 30.15 in1021.0 mb 30.00 in1015.9 mb -
Precipitation 0.00 in0.0 mm - -
Hour Temp Dew Point Humidity Winds Wind Gusts Pressure Precip Precip Rate Daily Precip Total
12:00 AM 56.8°F13.8°C 56.6°F13.7°C 99% Calm Calm -- 30.14 in1020.7 mb 0.00 in0.0 mm 0.00 in0.0 mm 0.00 in0.0 mm
12:15 AM 57.2°F14.0°C 56.7°F13.7°C 98% Calm Calm -- 30.15 in1021.0 mb 0.00 in0.0 mm 0.00 in0.0 mm 0.00 in0.0 mm
12:30 AM 57.4°F14.1°C 56.8°F13.8°C 98% Calm Calm -- 30.14 in1020.7 mb 0.00 in0.0 mm 0.00 in0.0 mm 0.00 in0.0 mm
12:45 AM 57.4°F14.1°C 56.8°F13.8°C 98% 0.1 mph N0.2 kmh N 1.6 mph2.6 kmh 30.14 in1020.7 mb 0.00 in0.0 mm 0.00 in0.0 mm 0.00 in0.0 mm
01:00 AM 57.4°F14.1°C 56.8°F13.8°C 98% 0.5 mph W0.8 kmh W 1.6 mph2.6 kmh 30.14 in1020.7 mb 0.00 in0.0 mm 0.00 in0.0 mm 0.00 in0.0 mm
01:15 AM 57.2°F14.0°C 56.7°F13.7°C 98% 0.2 mph NNW0.3 kmh NNW 0.7 mph1.1 kmh 30.14 in1020.7 mb 0.00 in0.0 mm 0.00 in0.0 mm 0.00 in0.0 mm
01:30 AM 56.8°F13.8°C 56.6°F13.7°C 99% 0.1 mph SW0.2 kmh SW 0.7 mph1.1 kmh 30.13 in1020.3 mb 0.00 in0.0 mm 0.00 in0.0 mm 0.00 in0.0 mm
01:45 AM 55.9°F13.3°C 55.7°F13.2°C 99% 0.1 mph W0.2 kmh W 0.7 mph1.1 kmh 30.14 in1020.7 mb 0.00 in0.0 mm 0.00 in0.0 mm 0.00 in0.0 mm
02:00 AM 55.0°F12.8°C 54.2°F12.3°C 97% 0.3 mph NW0.5 kmh NW 0.7 mph1.1 kmh 30.14 in1020.7 mb 0.00 in0.0 mm 0.00 in0.0 mm 0.00 in0.0 mm
02:15 AM 54.1°F12.3°C 53.3°F11.8°C 97% 0.4 mph NNW0.6 kmh NNW 0.7 mph1.1 kmh 30.14 in1020.7 mb 0.00 in0.0 mm 0.00 in0.0 mm 0.00 in0.0 mm
02:30 AM 53.2°F11.8°C 52.7°F11.5°C 98% Calm Calm -- 30.14 in1020.7 mb 0.00 in0.0 mm 0.00 in0.0 mm 0.00 in0.0 mm
02:45 AM 52.9°F11.6°C 52.3°F11.3°C 98% 0.1 mph E0.2 kmh E 0.7 mph1.1 kmh 30.13 in1020.3 mb 0.00 in0.0 mm 0.00 in0.0 mm 0.00 in0.0 mm
03:00 AM 52.7°F11.5°C 52.2°F11.2°C 98% 0.2 mph NW0.3 kmh NW 1.6 mph2.6 kmh 30.14 in1020.7 mb 0.00 in0.0 mm 0.00 in0.0 mm 0.00 in0.0 mm
03:15 AM 52.5°F11.4°C 52.0°F11.1°C 98% 0.1 mph N0.2 kmh N 0.7 mph1.1 kmh 30.13 in1020.3 mb 0.00 in0.0 mm 0.00 in0.0 mm 0.00 in0.0 mm
03:30 AM 51.6°F10.9°C 51.4°F10.8°C 99% 0.3 mph NW0.5 kmh NW 0.7 mph1.1 kmh 30.13 in1020.3 mb 0.00 in0.0 mm 0.00 in0.0 mm 0.00 in0.0 mm
03:45 AM 51.6°F10.9°C 51.4°F10.8°C 99% 0.1 mph W0.2 kmh W 0.7 mph1.1 kmh 30.13 in1020.3 mb 0.00 in0.0 mm 0.00 in0.0 mm 0.00 in0.0 mm
04:00 AM 51.4°F10.8°C 51.2°F10.7°C 99% Calm Calm 0.7 mph1.1 kmh 30.12 in1020.0 mb 0.00 in0.0 mm 0.00 in0.0 mm 0.00 in0.0 mm
04:15 AM 51.4°F10.8°C 51.2°F10.7°C 99% 0.1 mph SE0.2 kmh SE 0.7 mph1.1 kmh 30.12 in1020.0 mb 0.00 in0.0 mm 0.00 in0.0 mm 0.00 in0.0 mm
04:30 AM 51.4°F10.8°C 51.2°F10.7°C 99% 0.2 mph NW0.3 kmh NW 0.7 mph1.1 kmh 30.12 in1020.0 mb 0.00 in0.0 mm 0.00 in0.0 mm 0.00 in0.0 mm
04:45 AM 54.1°F12.3°C 53.3°F11.8°C 97% 0.3 mph N0.5 kmh N 1.6 mph2.6 kmh 30.12 in1020.0 mb 0.00 in0.0 mm 0.00 in0.0 mm 0.00 in0.0 mm
05:00 AM 55.4°F13.0°C 55.1°F12.8°C 99% 1.5 mph NE2.4 kmh NE 3.1 mph5.0 kmh 30.12 in1020.0 mb 0.00 in0.0 mm 0.00 in0.0 mm 0.00 in0.0 mm
05:15 AM 56.8°F13.8°C 56.6°F13.7°C 99% 1.6 mph S2.6 kmh S 3.1 mph5.0 kmh 30.12 in1020.0 mb 0.00 in0.0 mm 0.00 in0.0 mm 0.00 in0.0 mm
05:30 AM 59.9°F15.5°C 59.1°F15.1°C 97% 1.0 mph NE1.6 kmh NE 1.6 mph2.6 kmh 30.12 in1020.0 mb 0.00 in0.0 mm 0.00 in0.0 mm 0.00 in0.0 mm
05:45 AM 63.3°F17.4°C 60.7°F15.9°C 91% 1.4 mph SW2.3 kmh SW 2.2 mph3.5 kmh 30.11 in1019.6 mb 0.00 in0.0 mm 0.00 in0.0 mm 0.00 in0.0 mm
06:00 AM 66.9°F19.4°C 60.9°F16.1°C 81% 0.9 mph E1.4 kmh E 2.2 mph3.5 kmh 30.12 in1020.0 mb 0.00 in0.0 mm 0.00 in0.0 mm 0.00 in0.0 mm
06:15 AM 68.2°F20.1°C 58.8°F14.9°C 72% 1.6 mph SSW2.6 kmh SSW 2.2 mph3.5 kmh 30.12 in1020.0 mb 0.00 in0.0 mm 0.00 in0.0 mm 0.00 in0.0 mm
06:30 AM 68.7°F20.4°C 59.0°F15.0°C 71% 1.5 mph S2.4 kmh S 3.1 mph5.0 kmh 30.12 in1020.0 mb 0.00 in0.0 mm 0.00 in0.0 mm 0.00 in0.0 mm
06:45 AM 71.2°F21.8°C 60.2°F15.7°C 68% 1.4 mph N2.3 kmh N 2.2 mph3.5 kmh 30.12 in1020.0 mb 0.00 in0.0 mm 0.00 in0.0 mm 0.00 in0.0 mm
07:00 AM 69.3°F20.7°C 56.6°F13.7°C 64% 3.5 mph E5.6 kmh E 4.5 mph7.2 kmh 30.11 in1019.6 mb 0.00 in0.0 mm 0.00 in0.0 mm 0.00 in0.0 mm
07:15 AM 70.9°F21.6°C 59.0°F15.0°C 66% 2.5 mph NE4.0 kmh NE 3.8 mph6.1 kmh 30.11 in1019.6 mb 0.00 in0.0 mm 0.00 in0.0 mm 0.00 in0.0 mm
07:30 AM 70.7°F21.5°C 57.1°F13.9°C 62% 3.9 mph SE6.3 kmh SE 6.0 mph9.7 kmh 30.11 in1019.6 mb 0.00 in0.0 mm 0.00 in0.0 mm 0.00 in0.0 mm
07:45 AM 73.2°F22.9°C 59.0°F15.0°C 61% 2.0 mph SSE3.2 kmh SSE 3.1 mph5.0 kmh 30.11 in1019.6 mb 0.00 in0.0 mm 0.00 in0.0 mm 0.00 in0.0 mm
08:00 AM 73.4°F23.0°C 57.8°F14.3°C 58% 2.6 mph SW4.2 kmh SW 3.8 mph6.1 kmh 30.10 in1019.3 mb 0.00 in0.0 mm 0.00 in0.0 mm 0.00 in0.0 mm
08:15 AM 72.7°F22.6°C 57.6°F14.2°C 59% 3.4 mph SE5.5 kmh SE 6.9 mph11.1 kmh 30.10 in1019.3 mb 0.00 in0.0 mm 0.00 in0.0 mm 0.00 in0.0 mm
08:30 AM 71.2°F21.8°C 58.5°F14.7°C 64% 3.4 mph NE5.5 kmh NE 6.0 mph9.7 kmh 30.11 in1019.6 mb 0.00 in0.0 mm 0.00 in0.0 mm 0.00 in0.0 mm
08:45 AM 75.6°F24.2°C 60.3°F15.7°C 59% 3.4 mph W5.5 kmh W 4.5 mph7.2 kmh 30.09 in1019.0 mb 0.00 in0.0 mm 0.00 in0.0 mm 0.00 in0.0 mm
09:00 AM 75.0°F23.9°C 59.8°F15.4°C 59% 4.3 mph W6.9 kmh W 8.3 mph13.4 kmh 30.09 in1019.0 mb 0.00 in0.0 mm 0.00 in0.0 mm 0.00 in0.0 mm
09:15 AM 75.7°F24.3°C 58.5°F14.7°C 55% 3.5 mph W5.6 kmh W 6.9 mph11.1 kmh 30.09 in1019.0 mb 0.00 in0.0 mm 0.00 in0.0 mm 0.00 in0.0 mm
09:30 AM 76.1°F24.5°C 59.3°F15.2°C 56% 3.1 mph SSE5.0 kmh SSE 6.0 mph9.7 kmh 30.09 in1019.0 mb 0.00 in0.0 mm 0.00 in0.0 mm 0.00 in0.0 mm
09:45 AM 77.0°F25.0°C 57.5°F14.2°C 51% 3.1 mph WSW5.0 kmh WSW 5.4 mph8.7 kmh 30.08 in1018.6 mb 0.00 in0.0 mm 0.00 in0.0 mm 0.00 in0.0 mm
10:00 AM 76.3°F24.6°C 57.4°F14.1°C 52% 4.8 mph WSW7.7 kmh WSW 10.7 mph17.2 kmh 30.08 in1018.6 mb 0.00 in0.0 mm 0.00 in0.0 mm 0.00 in0.0 mm
10:15 AM 76.8°F24.9°C 57.4°F14.1°C 51% 3.3 mph WNW5.3 kmh WNW 6.0 mph9.7 kmh 30.08 in1018.6 mb 0.00 in0.0 mm 0.00 in0.0 mm 0.00 in0.0 mm
10:30 AM 75.0°F23.9°C 56.8°F13.8°C 53% 3.6 mph SW5.8 kmh SW 5.4 mph8.7 kmh 30.08 in1018.6 mb 0.00 in0.0 mm 0.00 in0.0 mm 0.00 in0.0 mm
10:45 AM 74.1°F23.4°C 56.4°F13.6°C 54% 2.6 mph SSW4.2 kmh SSW 4.5 mph7.2 kmh 30.07 in1018.3 mb 0.00 in0.0 mm 0.00 in0.0 mm 0.00 in0.0 mm
11:00 AM 77.7°F25.4°C 58.2°F14.6°C 51% 3.6 mph SSW5.8 kmh SSW 5.4 mph8.7 kmh 30.07 in1018.3 mb 0.00 in0.0 mm 0.00 in0.0 mm 0.00 in0.0 mm
11:15 AM 78.1°F25.6°C 58.0°F14.4°C 50% 3.9 mph SE6.3 kmh SE 8.3 mph13.4 kmh 30.07 in1018.3 mb 0.00 in0.0 mm 0.00 in0.0 mm 0.00 in0.0 mm
11:30 AM 78.1°F25.6°C 58.0°F14.4°C 50% 3.5 mph NW5.6 kmh NW 6.0 mph9.7 kmh 30.07 in1018.3 mb 0.00 in0.0 mm 0.00 in0.0 mm 0.00 in0.0 mm
11:45 AM 76.6°F24.8°C 57.2°F14.0°C 51% 3.4 mph WSW5.5 kmh WSW 5.4 mph8.7 kmh 30.07 in1018.3 mb 0.00 in0.0 mm 0.00 in0.0 mm 0.00 in0.0 mm
12:00 PM 76.3°F24.6°C 57.4°F14.1°C 52% 3.9 mph NW6.3 kmh NW 6.0 mph9.7 kmh 30.07 in1018.3 mb 0.00 in0.0 mm 0.00 in0.0 mm 0.00 in0.0 mm
12:15 PM 75.6°F24.2°C 57.3°F14.1°C 53% 4.7 mph SW7.6 kmh SW 9.8 mph15.8 kmh 30.06 in1017.9 mb 0.00 in0.0 mm 0.00 in0.0 mm 0.00 in0.0 mm
12:30 PM 72.9°F22.7°C 55.3°F12.9°C 54% 3.2 mph NNW5.1 kmh NNW 3.8 mph6.1 kmh 30.06 in1017.9 mb 0.00 in0.0 mm 0.00 in0.0 mm 0.00 in0.0 mm
12:45 PM 75.4°F24.1°C 57.1°F13.9°C 53% 3.4 mph SSW5.5 kmh SSW 5.4 mph8.7 kmh 30.06 in1017.9 mb 0.00 in0.0 mm 0.00 in0.0 mm 0.00 in0.0 mm
01:00 PM 75.2°F24.0°C 56.9°F13.8°C 53% 2.5 mph SW4.0 kmh SW 4.5 mph7.2 kmh 30.06 in1017.9 mb 0.00 in0.0 mm 0.00 in0.0 mm 0.00 in0.0 mm
01:15 PM 76.3°F24.6°C 57.4°F14.1°C 52% 3.3 mph NW5.3 kmh NW 6.0 mph9.7 kmh 30.06 in1017.9 mb 0.00 in0.0 mm 0.00 in0.0 mm 0.00 in0.0 mm
01:30 PM 76.3°F24.6°C 57.4°F14.1°C 52% 6.1 mph SE9.8 kmh SE 10.7 mph17.2 kmh 30.05 in1017.6 mb 0.00 in0.0 mm 0.00 in0.0 mm 0.00 in0.0 mm
01:45 PM 79.9°F26.6°C 57.9°F14.4°C 47% 4.1 mph SSW6.6 kmh SSW 8.3 mph13.4 kmh 30.05 in1017.6 mb 0.00 in0.0 mm 0.00 in0.0 mm 0.00 in0.0 mm
02:00 PM 77.4°F25.2°C 57.3°F14.1°C 50% 4.3 mph SE6.9 kmh SE 10.7 mph17.2 kmh 30.04 in1017.3 mb 0.00 in0.0 mm 0.00 in0.0 mm 0.00 in0.0 mm
02:15 PM 76.5°F24.7°C 57.6°F14.2°C 52% 3.5 mph SW5.6 kmh SW 6.9 mph11.1 kmh 30.04 in1017.3 mb 0.00 in0.0 mm 0.00 in0.0 mm 0.00 in0.0 mm
02:30 PM 78.8°F26.0°C 57.5°F14.2°C 48% 4.1 mph WSW6.6 kmh WSW 7.6 mph12.2 kmh 30.03 in1016.9 mb 0.00 in0.0 mm 0.00 in0.0 mm 0.00 in0.0 mm
02:45 PM 77.0°F25.0°C 57.5°F14.2°C 51% 4.5 mph WNW7.2 kmh WNW 8.3 mph13.4 kmh 30.02 in1016.6 mb 0.00 in0.0 mm 0.00 in0.0 mm 0.00 in0.0 mm
03:00 PM 79.0°F26.1°C 58.2°F14.6°C 49% 3.5 mph N5.6 kmh N 5.4 mph8.7 kmh 30.02 in1016.6 mb 0.00 in0.0 mm 0.00 in0.0 mm 0.00 in0.0 mm
03:15 PM 77.7°F25.4°C 57.6°F14.2°C 50% 4.3 mph NNW6.9 kmh NNW 7.6 mph12.2 kmh 30.02 in1016.6 mb 0.00 in0.0 mm 0.00 in0.0 mm 0.00 in0.0 mm
03:30 PM 75.7°F24.3°C 56.9°F13.8°C 52% 3.1 mph SW5.0 kmh SW 4.5 mph7.2 kmh 30.02 in1016.6 mb 0.00 in0.0 mm 0.00 in0.0 mm 0.00 in0.0 mm
03:45 PM 75.9°F24.4°C 57.6°F14.2°C 53% 3.6 mph SSE5.8 kmh SSE 8.3 mph13.4 kmh 30.02 in1016.6 mb 0.00 in0.0 mm 0.00 in0.0 mm 0.00 in0.0 mm
04:00 PM 75.2°F24.0°C 57.4°F14.1°C 54% 5.0 mph SE8.0 kmh SE 9.8 mph15.8 kmh 30.02 in1016.6 mb 0.00 in0.0 mm 0.00 in0.0 mm 0.00 in0.0 mm
04:15 PM 73.9°F23.3°C 56.8°F13.8°C 55% 5.7 mph SSE9.2 kmh SSE 9.8 mph15.8 kmh 30.02 in1016.6 mb 0.00 in0.0 mm 0.00 in0.0 mm 0.00 in0.0 mm
04:30 PM 73.9°F23.3°C 56.8°F13.8°C 55% 3.0 mph SE4.8 kmh SE 6.9 mph11.1 kmh 30.02 in1016.6 mb 0.00 in0.0 mm 0.00 in0.0 mm 0.00 in0.0 mm
04:45 PM 72.9°F22.7°C 56.3°F13.5°C 56% 4.4 mph WSW7.1 kmh WSW 10.7 mph17.2 kmh 30.02 in1016.6 mb 0.00 in0.0 mm 0.00 in0.0 mm 0.00 in0.0 mm
05:00 PM 72.9°F22.7°C 56.8°F13.8°C 57% 4.0 mph SE6.4 kmh SE 6.0 mph9.7 kmh 30.02 in1016.6 mb 0.00 in0.0 mm 0.00 in0.0 mm 0.00 in0.0 mm
05:15 PM 71.4°F21.9°C 55.9°F13.3°C 58% 3.8 mph E6.1 kmh E 8.3 mph13.4 kmh 30.01 in1016.3 mb 0.00 in0.0 mm 0.00 in0.0 mm 0.00 in0.0 mm
05:30 PM 71.2°F21.8°C 56.2°F13.4°C 59% 3.4 mph WSW5.5 kmh WSW 5.4 mph8.7 kmh 30.01 in1016.3 mb 0.00 in0.0 mm 0.00 in0.0 mm 0.00 in0.0 mm
05:45 PM 71.2°F21.8°C 56.2°F13.4°C 59% 3.3 mph NNW5.3 kmh NNW 4.5 mph7.2 kmh 30.01 in1016.3 mb 0.00 in0.0 mm 0.00 in0.0 mm 0.00 in0.0 mm
06:00 PM 70.7°F21.5°C 56.2°F13.4°C 60% 3.6 mph W5.8 kmh W 6.0 mph9.7 kmh 30.02 in1016.6 mb 0.00 in0.0 mm 0.00 in0.0 mm 0.00 in0.0 mm
06:15 PM 70.3°F21.3°C 55.8°F13.2°C 60% 4.2 mph SSW6.8 kmh SSW 6.0 mph9.7 kmh 30.01 in1016.3 mb 0.00 in0.0 mm 0.00 in0.0 mm 0.00 in0.0 mm
06:30 PM 69.6°F20.9°C 55.1°F12.8°C 60% 3.5 mph N5.6 kmh N 6.9 mph11.1 kmh 30.02 in1016.6 mb 0.00 in0.0 mm 0.00 in0.0 mm 0.00 in0.0 mm
06:45 PM 69.3°F20.7°C 54.8°F12.7°C 60% 2.7 mph WSW4.3 kmh WSW 7.6 mph12.2 kmh 30.02 in1016.6 mb 0.00 in0.0 mm 0.00 in0.0 mm 0.00 in0.0 mm
07:00 PM 68.7°F20.4°C 55.2°F12.9°C 62% 2.7 mph N4.3 kmh N 4.5 mph7.2 kmh 30.02 in1016.6 mb 0.00 in0.0 mm 0.00 in0.0 mm 0.00 in0.0 mm
07:15 PM 68.2°F20.1°C 55.1°F12.8°C 63% 2.6 mph E4.2 kmh E 3.8 mph6.1 kmh 30.01 in1016.3 mb 0.00 in0.0 mm 0.00 in0.0 mm 0.00 in0.0 mm
07:30 PM 67.5°F19.7°C 54.9°F12.7°C 64% 1.8 mph NE2.9 kmh NE 3.8 mph6.1 kmh 30.01 in1016.3 mb 0.00 in0.0 mm 0.00 in0.0 mm 0.00 in0.0 mm
07:45 PM 66.7°F19.3°C 55.0°F12.8°C 66% 1.9 mph NW3.1 kmh NW 3.1 mph5.0 kmh 30.02 in1016.6 mb 0.00 in0.0 mm 0.00 in0.0 mm 0.00 in0.0 mm
08:00 PM 66.4°F19.1°C 55.1°F12.8°C 67% 1.3 mph WSW2.1 kmh WSW 2.2 mph3.5 kmh 30.01 in1016.3 mb 0.00 in0.0 mm 0.00 in0.0 mm 0.00 in0.0 mm
08:15 PM 65.3°F18.5°C 55.3°F12.9°C 70% 0.7 mph WNW1.1 kmh WNW 1.6 mph2.6 kmh 30.01 in1016.3 mb 0.00 in0.0 mm 0.00 in0.0 mm 0.00 in0.0 mm
08:30 PM 64.4°F18.0°C 55.2°F12.9°C 72% 0.4 mph WSW0.6 kmh WSW 1.6 mph2.6 kmh 30.01 in1016.3 mb 0.00 in0.0 mm 0.00 in0.0 mm 0.00 in0.0 mm
08:45 PM 63.3°F17.4°C 54.5°F12.5°C 73% Calm Calm -- 30.01 in1016.3 mb 0.00 in0.0 mm 0.00 in0.0 mm 0.00 in0.0 mm
09:00 PM 62.2°F16.8°C 54.6°F12.6°C 76% 0.1 mph WNW0.2 kmh WNW 0.7 mph1.1 kmh 30.02 in1016.6 mb 0.00 in0.0 mm 0.00 in0.0 mm 0.00 in0.0 mm
09:15 PM 61.5°F16.4°C 55.0°F12.8°C 79% 0.6 mph W1.0 kmh W 1.6 mph2.6 kmh 30.01 in1016.3 mb 0.00 in0.0 mm 0.00 in0.0 mm 0.00 in0.0 mm
09:30 PM 61.2°F16.2°C 55.0°F12.8°C 80% 0.8 mph SSW1.3 kmh SSW 1.6 mph2.6 kmh 30.02 in1016.6 mb 0.00 in0.0 mm 0.00 in0.0 mm 0.00 in0.0 mm
09:45 PM 60.8°F16.0°C 54.9°F12.7°C 81% 0.2 mph W0.3 kmh W 0.7 mph1.1 kmh 30.02 in1016.6 mb 0.00 in0.0 mm 0.00 in0.0 mm 0.00 in0.0 mm
10:00 PM 60.1°F15.6°C 54.6°F12.6°C 82% Calm Calm -- 30.02 in1016.6 mb 0.00 in0.0 mm 0.00 in0.0 mm 0.00 in0.0 mm
10:15 PM 59.0°F15.0°C 54.2°F12.3°C 84% 0.3 mph WSW0.5 kmh WSW 1.6 mph2.6 kmh 30.02 in1016.6 mb 0.00 in0.0 mm 0.00 in0.0 mm 0.00 in0.0 mm
10:30 PM 58.5°F14.7°C 54.6°F12.6°C 87% 0.2 mph NW0.3 kmh NW 0.7 mph1.1 kmh 30.01 in1016.3 mb 0.00 in0.0 mm 0.00 in0.0 mm 0.00 in0.0 mm
10:45 PM 58.3°F14.6°C 54.8°F12.7°C 88% 0.8 mph WNW1.3 kmh WNW 2.2 mph3.5 kmh 30.02 in1016.6 mb 0.00 in0.0 mm 0.00 in0.0 mm 0.00 in0.0 mm
11:00 PM 58.3°F14.6°C 55.1°F12.8°C 89% 1.0 mph NW1.6 kmh NW 2.2 mph3.5 kmh 30.01 in1016.3 mb 0.00 in0.0 mm 0.00 in0.0 mm 0.00 in0.0 mm
11:15 PM 58.5°F14.7°C 55.2°F12.9°C 89% 1.0 mph WSW1.6 kmh WSW 2.2 mph3.5 kmh 30.00 in1015.9 mb 0.00 in0.0 mm 0.00 in0.0 mm 0.00 in0.0 mm
11:30 PM 58.1°F14.5°C 54.6°F12.6°C 88% 0.1 mph NW0.2 kmh NW 0.7 mph1.1 kmh 30.00 in1015.9 mb 0.00 in0.0 mm 0.00 in0.0 mm 0.00 in0.0 mm
11:45 PM 57.6°F14.2°C 54.0°F12.2°C 88% 0.5 mph SW0.8 kmh SW 1.6 mph2.6 kmh 30.00 in1015.9 mb 0.00 in0.0 mm 0.00 in0.0 mm 0.00 in0.0 mm